createdAt,value
2019-05-19T00:00:12.648Z,53.00
2019-05-19T00:05:10.671Z,55.55
2019-05-19T00:07:39.983Z,58.10
2019-05-19T00:10:09.423Z,59.33
2019-05-19T00:12:38.741Z,60.08
2019-05-19T00:15:08.242Z,60.00
2019-05-19T00:17:37.599Z,59.30
2019-05-19T00:20:07.197Z,56.77
2019-05-19T00:22:36.490Z,62.53
2019-05-19T00:25:05.920Z,54.27
2019-05-19T00:27:35.159Z,56.68
2019-05-19T00:30:04.765Z,56.18
2019-05-19T00:32:34.084Z,56.70
2019-05-19T00:35:03.398Z,57.03
2019-05-19T00:37:32.714Z,59.67
2019-05-19T00:40:02.086Z,61.08
2019-05-19T00:42:31.398Z,58.52
2019-05-19T00:45:00.696Z,63.17
2019-05-19T00:47:29.993Z,61.33
2019-05-19T00:49:59.291Z,61.42
2019-05-19T00:52:28.607Z,70.55
2019-05-19T00:54:57.908Z,67.30
2019-05-19T00:57:28.334Z,64.47
2019-05-19T00:59:58.109Z,62.75
2019-05-19T01:02:27.416Z,65.15
2019-05-19T01:04:56.675Z,64.37
2019-05-19T01:07:25.987Z,62.45
2019-05-19T01:09:55.289Z,59.75
2019-05-19T01:12:24.646Z,60.88
2019-05-19T01:14:53.921Z,64.65
2019-05-19T01:17:23.268Z,62.13
2019-05-19T01:19:55.948Z,60.15
2019-05-19T01:22:23.998Z,62.43
2019-05-19T01:24:53.309Z,64.15
2019-05-19T01:27:22.642Z,64.05
2019-05-19T01:29:52.059Z,61.92
2019-05-19T01:32:21.385Z,65.85
2019-05-19T01:34:50.710Z,68.25
2019-05-19T01:37:20.021Z,66.15
2019-05-19T01:39:49.291Z,67.25
2019-05-19T01:42:18.618Z,73.50
2019-05-19T01:44:49.298Z,71.57
2019-05-19T01:47:18.586Z,74.90
2019-05-19T01:49:47.865Z,70.25
2019-05-19T01:52:17.144Z,74.35
2019-05-19T01:54:46.468Z,72.00
2019-05-19T01:57:15.744Z,70.00
2019-05-19T01:59:45.044Z,66.57
2019-05-19T02:02:14.348Z,70.40
2019-05-19T02:04:43.635Z,66.57
2019-05-19T02:07:12.919Z,65.67
2019-05-19T02:09:42.237Z,65.30
2019-05-19T02:12:11.493Z,66.65
2019-05-19T02:14:40.754Z,76.85
2019-05-19T02:17:10.026Z,70.20
2019-05-19T02:19:39.321Z,70.87
2019-05-19T02:22:08.679Z,75.05
2019-05-19T02:24:38.041Z,71.55
2019-05-19T02:27:07.322Z,67.05
2019-05-19T02:29:36.651Z,67.03
2019-05-19T02:32:05.940Z,68.12
2019-05-19T02:34:35.266Z,68.33
2019-05-19T02:37:04.589Z,57.40
2019-05-19T02:39:33.878Z,63.28
2019-05-19T02:42:04.705Z,61.02
2019-05-19T02:44:36.584Z,62.95
2019-05-19T02:47:06.681Z,65.35
2019-05-19T02:49:37.785Z,62.45
2019-05-19T02:52:07.326Z,69.17
2019-05-19T02:54:37.041Z,66.20
2019-05-19T02:57:07.327Z,66.33
2019-05-19T02:59:37.386Z,67.82
2019-05-19T03:02:12.503Z,72.10
2019-05-19T03:04:41.821Z,73.60
2019-05-19T03:07:11.124Z,75.37
2019-05-19T03:09:40.381Z,72.25
2019-05-19T03:12:09.722Z,73.95
2019-05-19T03:14:39.030Z,76.50
2019-05-19T03:17:08.359Z,77.58
2019-05-19T03:19:37.614Z,75.12
2019-05-19T03:22:06.962Z,77.15
2019-05-19T03:24:36.258Z,76.80
2019-05-19T03:27:05.571Z,79.03
2019-05-19T03:29:39.459Z,79.12
2019-05-19T03:32:40.040Z,77.00
2019-05-19T03:35:09.303Z,77.67
2019-05-19T03:37:38.651Z,77.95
2019-05-19T03:40:20.026Z,73.97
2019-05-19T03:42:51.193Z,69.15
2019-05-19T03:45:20.690Z,69.07
2019-05-19T03:47:49.978Z,74.40
2019-05-19T03:50:19.452Z,72.85
2019-05-19T03:52:48.786Z,74.07
2019-05-19T03:55:18.107Z,79.40
2019-05-19T03:57:47.396Z,78.12
2019-05-19T04:00:16.914Z,77.08
2019-05-19T04:02:46.297Z,77.60
2019-05-19T04:05:15.557Z,78.12
2019-05-19T04:07:44.839Z,79.40
2019-05-19T04:10:14.205Z,78.28
2019-05-19T04:12:43.495Z,84.52
2019-05-19T04:15:12.897Z,83.50
2019-05-19T04:17:42.200Z,77.80
2019-05-19T04:20:11.560Z,77.95
2019-05-19T04:22:40.850Z,77.05
2019-05-19T04:25:10.223Z,71.97
2019-05-19T04:27:39.483Z,74.58
2019-05-19T04:30:09.393Z,77.10
2019-05-19T04:32:38.688Z,76.55
2019-05-19T04:35:08.125Z,74.25
2019-05-19T04:37:37.416Z,75.17
2019-05-19T04:40:06.900Z,66.53
2019-05-19T04:42:36.167Z,66.67
2019-05-19T04:45:05.582Z,66.77
2019-05-19T04:47:34.815Z,73.52
2019-05-19T04:50:04.385Z,71.87
2019-05-19T04:52:33.705Z,74.05
2019-05-19T04:55:02.971Z,69.07
2019-05-19T04:57:32.210Z,73.15
2019-05-19T05:00:01.486Z,73.35
2019-05-19T05:02:30.770Z,75.90
2019-05-19T05:05:00.110Z,75.72
2019-05-19T05:07:29.369Z,75.67
2019-05-19T05:09:58.642Z,77.17
2019-05-19T05:12:27.934Z,80.25
2019-05-19T05:14:57.249Z,77.47
2019-05-19T05:17:26.508Z,72.42
2019-05-19T05:19:55.774Z,75.65
2019-05-19T05:22:25.033Z,74.25
2019-05-19T05:24:54.323Z,74.37
2019-05-19T05:27:23.593Z,75.17
2019-05-19T05:29:52.966Z,74.58
2019-05-19T05:32:23.085Z,72.70
2019-05-19T05:34:52.379Z,75.67
2019-05-19T05:37:21.683Z,74.72
2019-05-19T05:39:50.980Z,76.67
2019-05-19T05:42:20.291Z,76.80
2019-05-19T05:44:49.555Z,74.72
2019-05-19T05:47:18.867Z,77.22
2019-05-19T05:49:50.256Z,72.08
2019-05-19T05:52:19.157Z,75.60
2019-05-19T05:54:48.441Z,71.22
2019-05-19T05:57:17.757Z,71.28
2019-05-19T05:59:47.109Z,74.47
2019-05-19T06:02:16.478Z,68.40
2019-05-19T06:04:45.761Z,68.62
2019-05-19T06:07:15.117Z,67.95
2019-05-19T06:09:44.386Z,68.45
2019-05-19T06:12:13.769Z,64.70
2019-05-19T06:14:43.109Z,66.02
2019-05-19T06:17:12.484Z,64.50
2019-05-19T06:19:41.809Z,65.12
2019-05-19T06:22:11.189Z,58.63
2019-05-19T06:24:40.448Z,61.23
2019-05-19T06:27:09.760Z,57.43
2019-05-19T06:29:39.052Z,58.73
2019-05-19T06:32:15.820Z,56.63
2019-05-19T06:34:45.097Z,57.23
2019-05-19T06:37:14.391Z,55.17
2019-05-19T06:39:46.175Z,55.92
2019-05-19T06:42:15.498Z,53.13
2019-05-19T06:44:44.773Z,54.10
2019-05-19T06:47:14.099Z,55.15
2019-05-19T06:49:43.400Z,51.85
2019-05-19T06:52:12.703Z,52.73
2019-05-19T06:54:41.983Z,53.58
2019-05-19T06:57:11.286Z,50.23
2019-05-19T06:59:40.566Z,50.08
2019-05-19T07:02:09.867Z,48.25
2019-05-19T07:04:39.192Z,51.45
2019-05-19T07:07:08.582Z,47.62
2019-05-19T07:09:37.976Z,46.13
2019-05-19T07:12:07.328Z,48.60
2019-05-19T07:14:36.651Z,46.13
2019-05-19T07:17:05.968Z,48.20
2019-05-19T07:19:35.294Z,45.33
2019-05-19T07:22:05.697Z,48.08
2019-05-19T07:24:35.063Z,44.65
2019-05-19T07:27:04.444Z,41.18
2019-05-19T07:29:33.774Z,41.73
2019-05-19T07:32:03.092Z,41.18
2019-05-19T07:34:32.520Z,40.48
2019-05-19T07:37:01.808Z,41.00
2019-05-19T07:39:31.135Z,39.70
2019-05-19T07:42:00.453Z,40.78
2019-05-19T07:44:29.792Z,41.28
2019-05-19T07:46:59.095Z,36.42
2019-05-19T07:49:28.436Z,37.65
2019-05-19T07:51:57.857Z,38.17
2019-05-19T07:54:27.248Z,35.58
2019-05-19T07:56:56.561Z,35.83
2019-05-19T07:59:25.950Z,33.50
2019-05-19T08:01:55.288Z,34.80
2019-05-19T08:04:24.794Z,34.83
2019-05-19T08:06:54.109Z,32.65
2019-05-19T08:09:23.462Z,31.65
2019-05-19T08:11:52.814Z,31.70
2019-05-19T08:14:22.208Z,30.52
2019-05-19T08:16:51.562Z,31.17
2019-05-19T08:19:20.851Z,30.45
2019-05-19T08:21:50.262Z,30.45
2019-05-19T08:24:19.606Z,27.58
2019-05-19T08:26:49.005Z,26.00
2019-05-19T08:29:18.340Z,28.40
2019-05-19T08:31:47.777Z,29.60
2019-05-19T08:34:17.081Z,28.38
2019-05-19T08:36:46.457Z,26.65
2019-05-19T08:39:15.778Z,26.60
2019-05-19T08:41:45.280Z,27.13
2019-05-19T08:44:14.659Z,26.40
2019-05-19T08:46:44.046Z,26.65
2019-05-19T08:49:13.393Z,27.73
2019-05-19T08:51:42.746Z,25.65
2019-05-19T08:54:14.623Z,24.72
2019-05-19T08:56:43.231Z,24.95
2019-05-19T08:59:12.524Z,24.00
2019-05-19T09:01:41.895Z,24.00
2019-05-19T09:04:11.224Z,23.22
2019-05-19T09:06:40.624Z,23.40
2019-05-19T09:09:09.927Z,22.85
2019-05-19T09:11:39.293Z,21.52
2019-05-19T09:14:08.635Z,22.00
2019-05-19T09:16:37.981Z,21.60
2019-05-19T09:19:07.389Z,21.02
2019-05-19T09:21:36.831Z,20.88
2019-05-19T09:24:06.222Z,19.17
2019-05-19T09:26:35.588Z,14.60
2019-05-19T09:29:05.050Z,13.98
2019-05-19T09:31:34.564Z,11.73
2019-05-19T09:34:03.934Z,12.07
2019-05-19T09:36:33.381Z,12.90
2019-05-19T09:39:03.033Z,13.45
2019-05-19T09:41:32.473Z,13.30
2019-05-19T09:44:01.872Z,11.28
2019-05-19T09:46:35.468Z,12.30
2019-05-19T09:49:22.468Z,11.12
2019-05-19T09:51:55.059Z,9.38
2019-05-19T09:54:27.273Z,10.60
2019-05-19T09:56:56.682Z,10.30
2019-05-19T09:59:26.100Z,9.15
2019-05-19T10:01:55.534Z,8.50
2019-05-19T10:04:25.302Z,10.90
2019-05-19T10:06:58.930Z,10.58
2019-05-19T10:09:49.190Z,8.55
2019-05-19T10:12:18.596Z,7.20
2019-05-19T10:14:50.991Z,8.10
2019-05-19T10:19:49.015Z,9.35
2019-05-19T10:22:18.498Z,8.00
2019-05-19T10:25:04.450Z,7.78
2019-05-19T10:27:21.980Z,7.70
2019-05-19T10:29:51.450Z,9.28
2019-05-19T10:32:21.958Z,7.58
2019-05-19T10:34:51.341Z,7.17
2019-05-19T10:37:22.739Z,8.25
2019-05-19T10:39:51.789Z,8.28
2019-05-19T10:42:21.207Z,8.55
2019-05-19T10:44:50.645Z,8.80
2019-05-19T10:47:20.020Z,9.98
2019-05-19T10:49:49.408Z,8.83
2019-05-19T10:52:18.809Z,9.15
2019-05-19T10:54:48.178Z,8.30
2019-05-19T10:57:17.541Z,7.72
2019-05-19T10:59:46.918Z,9.40
2019-05-19T11:02:19.329Z,9.28
2019-05-19T11:07:17.006Z,8.65
2019-05-19T11:09:46.468Z,9.18
2019-05-19T11:12:15.854Z,9.63
2019-05-19T11:14:45.333Z,10.80
2019-05-19T11:17:14.709Z,9.18
2019-05-19T11:19:44.078Z,9.40
2019-05-19T11:22:13.504Z,10.80
2019-05-19T11:24:42.986Z,9.65
2019-05-19T11:27:12.360Z,10.48
2019-05-19T11:29:43.900Z,11.57
2019-05-19T11:32:13.330Z,12.10
2019-05-19T11:34:42.656Z,12.75
2019-05-19T11:37:12.018Z,12.45
2019-05-19T11:39:41.397Z,10.45
2019-05-19T11:42:10.784Z,13.30
2019-05-19T11:44:40.160Z,13.25
2019-05-19T11:47:09.563Z,13.08
2019-05-19T11:49:38.954Z,11.40
2019-05-19T11:52:08.354Z,10.75
2019-05-19T11:54:37.850Z,10.55
2019-05-19T11:57:07.254Z,9.83
2019-05-19T11:59:36.731Z,10.15
2019-05-19T12:02:07.301Z,10.88
2019-05-19T12:04:36.715Z,8.93
2019-05-19T12:07:06.162Z,9.60
2019-05-19T12:09:35.563Z,8.88
2019-05-19T12:12:04.968Z,8.85
2019-05-19T12:14:34.402Z,7.58
2019-05-19T12:17:03.747Z,7.12
2019-05-19T12:19:33.177Z,8.70
2019-05-19T12:22:02.538Z,7.83
2019-05-19T12:24:31.943Z,6.78
2019-05-19T12:27:01.296Z,6.95
2019-05-19T12:29:30.994Z,5.78
2019-05-19T12:32:00.416Z,5.95
2019-05-19T12:34:29.953Z,7.90
2019-05-19T12:37:01.194Z,7.08
2019-05-19T12:39:30.543Z,7.53
2019-05-19T12:42:00.089Z,7.53
2019-05-19T12:44:29.452Z,7.28
2019-05-19T12:47:02.657Z,6.75
2019-05-19T12:49:33.602Z,6.78
2019-05-19T12:52:02.904Z,7.30
2019-05-19T12:54:32.269Z,7.58
2019-05-19T12:57:01.612Z,7.03
2019-05-19T12:59:31.041Z,7.15
2019-05-19T13:02:00.356Z,7.17
2019-05-19T13:04:29.742Z,6.65
2019-05-19T13:06:59.099Z,6.00
2019-05-19T13:09:28.564Z,5.78
2019-05-19T13:11:57.911Z,7.05
2019-05-19T13:14:27.979Z,7.47
2019-05-19T13:16:59.126Z,6.22
2019-05-19T13:19:28.461Z,6.20
2019-05-19T13:21:57.897Z,7.45
2019-05-19T13:24:27.506Z,7.58
2019-05-19T13:26:57.126Z,8.83
2019-05-19T13:29:26.693Z,8.13
2019-05-19T13:31:56.156Z,9.20
2019-05-19T13:34:25.474Z,7.92
2019-05-19T13:36:57.397Z,10.65
2019-05-19T13:39:26.748Z,7.80
2019-05-19T13:41:56.201Z,7.00
2019-05-19T13:44:25.485Z,6.67
2019-05-19T13:46:54.958Z,6.47
2019-05-19T13:49:24.461Z,4.72
2019-05-19T13:51:53.874Z,5.10
2019-05-19T13:54:23.210Z,4.90
2019-05-19T13:56:52.638Z,4.92
2019-05-19T13:59:21.944Z,5.67
2019-05-19T14:01:51.328Z,5.55
2019-05-19T14:04:20.678Z,5.70
2019-05-19T14:06:50.153Z,5.83
2019-05-19T14:09:19.470Z,4.85
2019-05-19T14:11:48.798Z,5.08
2019-05-19T14:14:18.195Z,5.17
2019-05-19T14:16:47.560Z,6.65
2019-05-19T14:19:16.906Z,5.25
2019-05-19T14:21:46.292Z,5.97
2019-05-19T14:24:15.674Z,5.78
2019-05-19T14:26:45.105Z,5.55
2019-05-19T14:29:14.511Z,5.42
2019-05-19T14:31:43.905Z,5.78
2019-05-19T14:34:13.323Z,4.50
2019-05-19T14:36:42.845Z,4.95
2019-05-19T14:39:12.229Z,4.72
2019-05-19T14:41:46.487Z,4.08
2019-05-19T14:44:15.875Z,5.10
2019-05-19T14:46:45.204Z,4.22
2019-05-19T14:49:14.594Z,7.05
2019-05-19T14:51:44.043Z,6.10
2019-05-19T14:54:13.442Z,7.22
2019-05-19T14:56:42.805Z,6.92
2019-05-19T14:59:12.210Z,6.95
2019-05-19T15:01:41.568Z,7.45
2019-05-19T15:04:12.181Z,7.25
2019-05-19T15:06:41.585Z,7.53
2019-05-19T15:09:10.919Z,7.15
2019-05-19T15:11:40.314Z,7.33
2019-05-19T15:14:09.639Z,7.17
2019-05-19T15:16:38.979Z,7.12
2019-05-19T15:19:08.369Z,7.20
2019-05-19T15:21:37.668Z,5.22
2019-05-19T15:24:07.275Z,4.40
2019-05-19T15:26:36.691Z,3.77
2019-05-19T15:29:06.078Z,4.33
2019-05-19T15:31:35.596Z,4.22
2019-05-19T15:34:05.004Z,3.58
2019-05-19T15:36:34.590Z,3.80
2019-05-19T15:39:05.556Z,4.53
2019-05-19T15:41:35.012Z,4.00
2019-05-19T15:44:04.476Z,4.47
2019-05-19T15:46:33.932Z,4.33
2019-05-19T15:49:03.322Z,3.50
2019-05-19T15:51:37.374Z,5.15
2019-05-19T15:54:05.264Z,5.42
2019-05-19T15:56:34.662Z,4.30
2019-05-19T15:59:04.042Z,4.85
2019-05-19T16:01:33.500Z,4.83
2019-05-19T16:04:02.902Z,5.37
2019-05-19T16:06:32.319Z,4.95
2019-05-19T16:09:01.731Z,4.42
2019-05-19T16:11:31.180Z,4.58
2019-05-19T16:14:00.530Z,4.33
2019-05-19T16:16:32.106Z,3.90
2019-05-19T16:19:03.190Z,4.00
2019-05-19T16:21:32.576Z,3.60
2019-05-19T16:24:01.920Z,4.40
2019-05-19T16:26:31.276Z,7.17
2019-05-19T16:29:00.696Z,5.37
2019-05-19T16:31:29.989Z,6.45
2019-05-19T16:33:59.293Z,5.17
2019-05-19T16:36:28.703Z,4.62
2019-05-19T16:38:58.056Z,4.10
2019-05-19T16:41:27.447Z,4.15
2019-05-19T16:43:56.864Z,5.00
2019-05-19T16:46:26.243Z,4.17
2019-05-19T16:48:55.676Z,4.80
2019-05-19T16:51:25.067Z,4.53
2019-05-19T16:53:56.539Z,4.87
2019-05-19T16:56:25.949Z,5.10
2019-05-19T16:58:55.385Z,8.58
2019-05-19T17:01:24.892Z,18.60
2019-05-19T17:03:54.376Z,31.97
2019-05-19T17:06:23.740Z,38.80
2019-05-19T17:08:53.184Z,26.12
2019-05-19T17:11:22.578Z,36.73
2019-05-19T17:13:52.088Z,15.53
2019-05-19T17:16:21.858Z,12.80
2019-05-19T17:18:51.340Z,11.28
2019-05-19T17:21:20.756Z,10.53
2019-05-19T17:23:50.243Z,4.92
2019-05-19T17:26:22.343Z,4.20
2019-05-19T17:29:00.134Z,3.75
2019-05-19T17:31:26.730Z,4.33
2019-05-19T17:33:56.217Z,3.35
2019-05-19T17:36:27.521Z,4.83
2019-05-19T17:38:57.103Z,4.55
2019-05-19T17:41:26.448Z,6.80
2019-05-19T17:43:55.944Z,5.10
2019-05-19T17:46:26.431Z,4.05
2019-05-19T17:48:55.928Z,6.10
2019-05-19T17:51:28.200Z,4.50
2019-05-19T17:53:57.712Z,4.35
2019-05-19T17:56:27.514Z,4.47
2019-05-19T17:58:57.309Z,4.25
2019-05-19T18:01:26.735Z,4.62
2019-05-19T18:03:56.244Z,4.62
2019-05-19T18:06:28.906Z,6.45
2019-05-19T18:08:56.886Z,4.12
2019-05-19T18:11:26.441Z,4.83
2019-05-19T18:13:56.032Z,5.72
2019-05-19T18:16:25.435Z,4.70
2019-05-19T18:18:54.826Z,5.00
2019-05-19T18:21:24.224Z,4.95
2019-05-19T18:23:53.636Z,5.20
2019-05-19T18:26:23.109Z,6.53
2019-05-19T18:28:52.485Z,5.55
2019-05-19T18:31:21.956Z,5.72
2019-05-19T18:33:51.449Z,6.15
2019-05-19T18:36:23.426Z,7.92
2019-05-19T18:38:52.830Z,7.20
2019-05-19T18:41:22.280Z,8.55
2019-05-19T18:43:51.617Z,8.05
2019-05-19T18:46:21.105Z,9.20
2019-05-19T18:48:50.523Z,8.80
2019-05-19T18:51:21.078Z,9.40
2019-05-19T18:53:50.491Z,9.40
2019-05-19T18:56:22.705Z,9.38
2019-05-19T18:58:52.125Z,9.43
2019-05-19T19:01:21.686Z,9.90
2019-05-19T19:03:51.178Z,10.10
2019-05-19T19:06:23.895Z,12.43
2019-05-19T19:08:53.576Z,12.73
2019-05-19T19:11:23.054Z,11.38
2019-05-19T19:13:52.476Z,11.40
2019-05-19T19:16:21.991Z,11.65
2019-05-19T19:18:51.370Z,11.88
2019-05-19T19:21:20.888Z,12.05
2019-05-19T19:23:50.316Z,11.18
2019-05-19T19:26:21.850Z,13.25
2019-05-19T19:28:51.243Z,12.50
2019-05-19T19:31:20.642Z,13.85
2019-05-19T19:33:50.024Z,14.05
2019-05-19T19:36:19.451Z,12.23
2019-05-19T19:38:48.902Z,12.40
2019-05-19T19:41:18.256Z,11.88
2019-05-19T19:43:47.701Z,12.07
2019-05-19T19:46:17.064Z,12.07
2019-05-19T19:48:46.458Z,13.25
2019-05-19T19:51:15.899Z,11.93
2019-05-19T19:53:45.346Z,11.28
2019-05-19T19:56:14.701Z,11.40
2019-05-19T19:58:44.083Z,12.85
2019-05-19T20:01:13.493Z,11.65
2019-05-19T20:03:42.969Z,12.63
2019-05-19T20:06:12.338Z,12.03
2019-05-19T20:08:41.743Z,11.43
2019-05-19T20:11:11.122Z,10.88
2019-05-19T20:13:40.522Z,10.15
2019-05-19T20:16:09.861Z,12.45
2019-05-19T20:18:39.277Z,10.10
2019-05-19T20:21:09.030Z,12.20
2019-05-19T20:23:38.399Z,10.43
2019-05-19T20:26:07.765Z,9.85
2019-05-19T20:28:37.140Z,9.63
2019-05-19T20:31:06.495Z,9.43
2019-05-19T20:33:35.894Z,9.48
2019-05-19T20:36:05.265Z,8.80
2019-05-19T20:38:34.623Z,11.25
2019-05-19T20:41:03.999Z,8.60
2019-05-19T20:43:33.378Z,8.13
2019-05-19T20:46:02.722Z,9.13
2019-05-19T20:48:32.871Z,8.28
2019-05-19T20:51:02.355Z,8.75
2019-05-19T20:53:31.797Z,8.30
2019-05-19T20:56:01.194Z,8.88
2019-05-19T20:58:30.590Z,8.95
2019-05-19T21:00:59.950Z,9.05
2019-05-19T21:03:29.364Z,9.15
2019-05-19T21:05:58.735Z,10.18
2019-05-19T21:08:28.111Z,9.48
2019-05-19T21:10:57.511Z,10.15
2019-05-19T21:13:26.851Z,9.48
2019-05-19T21:15:56.173Z,9.95
2019-05-19T21:18:25.514Z,10.35
2019-05-19T21:20:54.908Z,12.07
2019-05-19T21:23:24.218Z,10.68
2019-05-19T21:25:53.593Z,10.23
2019-05-19T21:28:22.922Z,11.05
2019-05-19T21:31:04.900Z,12.70
2019-05-19T21:33:23.396Z,10.80
2019-05-19T21:35:52.793Z,10.90
2019-05-19T21:38:22.119Z,11.80
2019-05-19T21:40:51.457Z,11.18
2019-05-19T21:43:20.911Z,12.23
2019-05-19T21:45:50.219Z,11.57
2019-05-19T21:48:31.405Z,12.63
2019-05-19T21:51:00.774Z,12.80
2019-05-19T21:53:30.199Z,12.63
2019-05-19T21:55:59.571Z,13.35
2019-05-19T21:58:29.053Z,13.20
2019-05-19T22:00:58.415Z,12.98
2019-05-19T22:03:27.827Z,13.98
2019-05-19T22:05:57.159Z,22.87
2019-05-19T22:08:26.519Z,15.45
2019-05-19T22:10:55.871Z,14.28
2019-05-19T22:13:25.243Z,15.10
2019-05-19T22:16:10.143Z,14.70
2019-05-19T22:18:25.709Z,15.00
2019-05-19T22:21:30.831Z,15.35
2019-05-19T22:24:33.263Z,14.73
2019-05-19T22:27:32.499Z,16.33
2019-05-19T22:30:31.853Z,15.70
2019-05-19T22:33:34.316Z,15.98
2019-05-19T22:36:30.335Z,15.95
2019-05-19T22:45:30.465Z,16.50
2019-05-19T22:47:59.808Z,18.17
2019-05-19T22:50:31.377Z,17.52
2019-05-19T22:53:00.712Z,17.30
2019-05-19T22:55:30.018Z,19.40
2019-05-19T22:57:59.344Z,19.52
2019-05-19T23:00:28.691Z,21.85
2019-05-19T23:02:58.017Z,22.73
2019-05-19T23:05:27.390Z,22.60
2019-05-19T23:07:56.832Z,21.12
2019-05-19T23:10:26.211Z,22.70
2019-05-19T23:12:55.484Z,24.77
2019-05-19T23:15:24.845Z,25.02
2019-05-19T23:17:54.260Z,26.70
2019-05-19T23:20:23.617Z,25.95
2019-05-19T23:22:52.897Z,21.57
2019-05-19T23:25:22.263Z,24.05
2019-05-19T23:27:51.660Z,26.75
2019-05-19T23:30:21.104Z,28.65
2019-05-19T23:32:50.462Z,30.12
2019-05-19T23:35:19.765Z,32.20
2019-05-19T23:37:49.147Z,34.73
2019-05-19T23:40:18.496Z,33.48
2019-05-19T23:42:47.829Z,33.28
2019-05-19T23:45:17.281Z,34.15
2019-05-19T23:47:46.665Z,37.08
2019-05-19T23:50:16.194Z,35.70
2019-05-19T23:52:45.542Z,35.05
2019-05-19T23:55:14.865Z,42.80
2019-05-19T23:57:44.205Z,38.88
